PWSweather.com
Personal Weather Stations
Station Observations
ISYDDANM23
Felsted, AabenraaDK 6200

FelstedAabenraaDK 6200

Lat: 54.977066, Lon: 9.507192

Elevation: 135

Station Type: Davis Vantage Pro 2 Plus 24H

http://www.valkaer.dk

Latest ConditionsUpdated 5:00:01 AM GMT+01:01 Wednesday, Aug 21, 2019
Currently Today's Max Today's Min Today's Average
Temperature 52.5°F11.4°C 53.2°F11.8°C 51.9°F11.1°C 52.5°F11.4°C
Dew Point 49.9°F9.9°C 50.6°F10.3°C 49.4°F9.7°C 49.9°F9.9°C
Winds 1.2 mph SW1.9 kmh SW 3.5 mph -5.6 kmh - - 1.6 mph 2.6 kmh
Wind Gusts 2.3 mph3.7 kmh 4.6 mph7.4 kmh - -
Humidity 91% 92% 90% 91%
Pressure 30.23 in1023.7 mb 30.23 in1023.7 mb 30.20 in1022.7 mb -
Hour Temp Dew Point Humidity Winds Wind Gusts Pressure Precip Precip Rate Daily Precip Total
05:00 AM 52.5°F11.4°C 49.9°F9.9°C 91% 1.2 mph SW1.9 kmh SW 2.3 mph3.7 kmh 30.23 in1023.7 mb - 0.00 in0.0 mm 0.00 in0.0 mm
04:55 AM 52.4°F11.3°C 49.6°F9.8°C 90% 2.3 mph WSW3.7 kmh WSW 3.5 mph5.6 kmh 30.23 in1023.7 mb - 0.00 in0.0 mm 0.00 in0.0 mm
04:50 AM 52.6°F11.4°C 49.7°F9.8°C 90% 2.3 mph SW3.7 kmh SW 3.5 mph5.6 kmh 30.23 in1023.7 mb - 0.00 in0.0 mm 0.00 in0.0 mm
04:45 AM 52.8°F11.6°C 49.9°F9.9°C 90% 1.2 mph SW1.9 kmh SW 2.3 mph3.7 kmh 30.23 in1023.7 mb - 0.00 in0.0 mm 0.00 in0.0 mm
04:40 AM 52.9°F11.6°C 50.0°F10.0°C 90% 1.2 mph SW1.9 kmh SW 3.5 mph5.6 kmh 30.23 in1023.7 mb - 0.00 in0.0 mm 0.00 in0.0 mm
04:35 AM 53.0°F11.7°C 50.2°F10.1°C 90% 1.2 mph SW1.9 kmh SW 2.3 mph3.7 kmh 30.23 in1023.7 mb - 0.00 in0.0 mm 0.00 in0.0 mm
04:30 AM 53.2°F11.8°C 50.3°F10.2°C 90% 3.5 mph SW5.6 kmh SW 3.5 mph5.6 kmh 30.23 in1023.7 mb - 0.00 in0.0 mm 0.00 in0.0 mm
04:25 AM 52.9°F11.6°C 50.0°F10.0°C 90% 3.5 mph SW5.6 kmh SW 4.6 mph7.4 kmh 30.23 in1023.7 mb - 0.00 in0.0 mm 0.00 in0.0 mm
04:20 AM 52.7°F11.5°C 50.1°F10.1°C 91% 3.5 mph SW5.6 kmh SW 3.5 mph5.6 kmh 30.23 in1023.7 mb - 0.00 in0.0 mm 0.00 in0.0 mm
04:15 AM 52.5°F11.4°C 50.0°F10.0°C 91% 1.2 mph SW1.9 kmh SW 3.5 mph5.6 kmh 30.23 in1023.7 mb - 0.00 in0.0 mm 0.00 in0.0 mm
04:10 AM 52.7°F11.5°C 50.1°F10.1°C 91% 2.3 mph WSW3.7 kmh WSW 3.5 mph5.6 kmh 30.23 in1023.7 mb - 0.00 in0.0 mm 0.00 in0.0 mm
04:00 AM 52.4°F11.3°C 49.8°F9.9°C 91% 1.2 mph SSW1.9 kmh SSW 2.3 mph3.7 kmh 30.23 in1023.7 mb - 0.00 in0.0 mm 0.00 in0.0 mm
03:55 AM 52.2°F11.2°C 49.7°F9.8°C 91% Calm Calm -- 30.23 in1023.7 mb - 0.00 in0.0 mm 0.00 in0.0 mm
03:50 AM 52.0°F11.1°C 49.5°F9.7°C 91% 1.2 mph SSW1.9 kmh SSW 2.3 mph3.7 kmh 30.23 in1023.7 mb - 0.00 in0.0 mm 0.00 in0.0 mm
03:45 AM 52.3°F11.3°C 49.8°F9.9°C 91% 1.2 mph SSW1.9 kmh SSW 2.3 mph3.7 kmh 30.23 in1023.7 mb - 0.00 in0.0 mm 0.00 in0.0 mm
03:40 AM 52.4°F11.3°C 49.9°F9.9°C 91% 1.2 mph SSW1.9 kmh SSW 1.2 mph1.9 kmh 30.22 in1023.4 mb - 0.00 in0.0 mm 0.00 in0.0 mm
03:35 AM 52.1°F11.2°C 49.5°F9.7°C 91% Calm Calm 1.2 mph1.9 kmh 30.22 in1023.4 mb - 0.00 in0.0 mm 0.00 in0.0 mm
03:30 AM 52.0°F11.1°C 49.5°F9.7°C 91% Calm Calm 1.2 mph1.9 kmh 30.22 in1023.4 mb - 0.00 in0.0 mm 0.00 in0.0 mm
03:25 AM 52.0°F11.1°C 49.5°F9.7°C 91% Calm Calm -- 30.22 in1023.4 mb - 0.00 in0.0 mm 0.00 in0.0 mm
03:20 AM 51.9°F11.1°C 49.4°F9.7°C 91% 1.2 mph SSW1.9 kmh SSW 1.2 mph1.9 kmh 30.22 in1023.4 mb - 0.00 in0.0 mm 0.00 in0.0 mm
03:15 AM 51.9°F11.1°C 49.4°F9.7°C 91% 1.2 mph SSW1.9 kmh SSW 2.3 mph3.7 kmh 30.22 in1023.4 mb - 0.00 in0.0 mm 0.00 in0.0 mm
03:10 AM 52.0°F11.1°C 49.5°F9.7°C 91% 1.2 mph SSW1.9 kmh SSW 2.3 mph3.7 kmh 30.22 in1023.4 mb - 0.00 in0.0 mm 0.00 in0.0 mm
03:00 AM 51.9°F11.1°C 49.4°F9.7°C 91% 1.2 mph SSW1.9 kmh SSW 2.3 mph3.7 kmh 30.21 in1023.0 mb - 0.00 in0.0 mm 0.00 in0.0 mm
02:55 AM 52.2°F11.2°C 49.4°F9.7°C 90% 1.2 mph SSW1.9 kmh SSW 1.2 mph1.9 kmh 30.21 in1023.0 mb - 0.00 in0.0 mm 0.00 in0.0 mm
02:50 AM 52.5°F11.4°C 49.9°F9.9°C 91% 1.2 mph SSW1.9 kmh SSW 2.3 mph3.7 kmh 30.21 in1023.0 mb - 0.00 in0.0 mm 0.00 in0.0 mm
02:45 AM 52.6°F11.4°C 50.0°F10.0°C 91% 1.2 mph SSW1.9 kmh SSW 2.3 mph3.7 kmh 30.21 in1023.0 mb - 0.00 in0.0 mm 0.00 in0.0 mm
02:40 AM 52.4°F11.3°C 49.9°F9.9°C 91% 2.3 mph SW3.7 kmh SW 2.3 mph3.7 kmh 30.21 in1023.0 mb - 0.00 in0.0 mm 0.00 in0.0 mm
02:35 AM 52.4°F11.3°C 49.8°F9.9°C 91% 1.2 mph SW1.9 kmh SW 3.5 mph5.6 kmh 30.21 in1023.0 mb - 0.00 in0.0 mm 0.00 in0.0 mm
02:30 AM 52.4°F11.3°C 49.6°F9.8°C 90% 2.3 mph SW3.7 kmh SW 3.5 mph5.6 kmh 30.21 in1023.0 mb - 0.00 in0.0 mm 0.00 in0.0 mm
02:25 AM 52.6°F11.4°C 50.0°F10.0°C 91% 2.3 mph SW3.7 kmh SW 3.5 mph5.6 kmh 30.21 in1023.0 mb - 0.00 in0.0 mm 0.00 in0.0 mm
02:20 AM 52.6°F11.4°C 50.0°F10.0°C 91% 2.3 mph SW3.7 kmh SW 3.5 mph5.6 kmh 30.21 in1023.0 mb - 0.00 in0.0 mm 0.00 in0.0 mm
02:15 AM 52.6°F11.4°C 50.0°F10.0°C 91% 2.3 mph SW3.7 kmh SW 3.5 mph5.6 kmh 30.21 in1023.0 mb - 0.00 in0.0 mm 0.00 in0.0 mm
02:10 AM 52.7°F11.5°C 50.1°F10.1°C 91% 2.3 mph SSW3.7 kmh SSW 3.5 mph5.6 kmh 30.21 in1023.0 mb - 0.00 in0.0 mm 0.00 in0.0 mm
02:00 AM 52.9°F11.6°C 50.3°F10.2°C 91% 2.3 mph SSW3.7 kmh SSW 3.5 mph5.6 kmh 30.21 in1023.0 mb - 0.00 in0.0 mm 0.00 in0.0 mm
01:55 AM 52.7°F11.5°C 50.1°F10.1°C 91% 2.3 mph SSW3.7 kmh SSW 4.6 mph7.4 kmh 30.21 in1023.0 mb - 0.00 in0.0 mm 0.00 in0.0 mm
01:50 AM 52.6°F11.4°C 50.0°F10.0°C 91% 2.3 mph SSW3.7 kmh SSW 3.5 mph5.6 kmh 30.21 in1023.0 mb - 0.00 in0.0 mm 0.00 in0.0 mm
01:45 AM 52.3°F11.3°C 50.0°F10.0°C 92% 3.5 mph SSW5.6 kmh SSW 4.6 mph7.4 kmh 30.21 in1023.0 mb - 0.00 in0.0 mm 0.00 in0.0 mm
01:40 AM 52.1°F11.2°C 49.6°F9.8°C 91% 2.3 mph SSW3.7 kmh SSW 3.5 mph5.6 kmh 30.21 in1023.0 mb - 0.00 in0.0 mm 0.00 in0.0 mm
01:35 AM 52.0°F11.1°C 49.5°F9.7°C 91% 2.3 mph SW3.7 kmh SW 3.5 mph5.6 kmh 30.21 in1023.0 mb - 0.00 in0.0 mm 0.00 in0.0 mm
01:30 AM 52.1°F11.2°C 49.6°F9.8°C 91% 2.3 mph SSW3.7 kmh SSW 3.5 mph5.6 kmh 30.21 in1023.0 mb - 0.00 in0.0 mm 0.00 in0.0 mm
01:25 AM 52.2°F11.2°C 49.7°F9.8°C 91% 2.3 mph SSW3.7 kmh SSW 2.3 mph3.7 kmh 30.20 in1022.7 mb - 0.00 in0.0 mm 0.00 in0.0 mm
01:20 AM 52.4°F11.3°C 49.9°F9.9°C 91% 1.2 mph S1.9 kmh S 3.5 mph5.6 kmh 30.21 in1023.0 mb - 0.00 in0.0 mm 0.00 in0.0 mm
01:15 AM 52.3°F11.3°C 50.1°F10.1°C 92% 1.2 mph S1.9 kmh S 2.3 mph3.7 kmh 30.21 in1023.0 mb - 0.00 in0.0 mm 0.00 in0.0 mm
01:10 AM 52.2°F11.2°C 49.9°F9.9°C 92% 1.2 mph S1.9 kmh S 2.3 mph3.7 kmh 30.20 in1022.7 mb - 0.00 in0.0 mm 0.00 in0.0 mm
01:00 AM 52.2°F11.2°C 49.7°F9.8°C 91% 1.2 mph S1.9 kmh S 3.5 mph5.6 kmh 30.21 in1023.0 mb - 0.00 in0.0 mm 0.00 in0.0 mm
12:55 AM 52.3°F11.3°C 49.8°F9.9°C 91% 1.2 mph S1.9 kmh S 2.3 mph3.7 kmh 30.21 in1023.0 mb - 0.00 in0.0 mm 0.00 in0.0 mm
12:50 AM 52.3°F11.3°C 49.8°F9.9°C 91% 1.2 mph S1.9 kmh S 2.3 mph3.7 kmh 30.21 in1023.0 mb - 0.00 in0.0 mm 0.00 in0.0 mm
12:45 AM 52.5°F11.4°C 49.9°F9.9°C 91% 1.2 mph S1.9 kmh S 1.2 mph1.9 kmh 30.21 in1023.0 mb - 0.00 in0.0 mm 0.00 in0.0 mm
12:40 AM 52.5°F11.4°C 49.9°F9.9°C 91% 1.2 mph S1.9 kmh S 1.2 mph1.9 kmh 30.21 in1023.0 mb - 0.00 in0.0 mm 0.00 in0.0 mm
12:35 AM 52.5°F11.4°C 49.9°F9.9°C 91% 1.2 mph S1.9 kmh S 1.2 mph1.9 kmh 30.21 in1023.0 mb - 0.00 in0.0 mm 0.00 in0.0 mm
12:30 AM 52.3°F11.3°C 49.8°F9.9°C 91% Calm Calm 1.2 mph1.9 kmh 30.21 in1023.0 mb - 0.00 in0.0 mm 0.00 in0.0 mm
12:25 AM 52.5°F11.4°C 50.0°F10.0°C 91% 1.2 mph S1.9 kmh S 2.3 mph3.7 kmh 30.21 in1023.0 mb - 0.00 in0.0 mm 0.00 in0.0 mm
12:20 AM 53.1°F11.7°C 50.5°F10.3°C 91% 1.2 mph S1.9 kmh S 2.3 mph3.7 kmh 30.21 in1023.0 mb - 0.00 in0.0 mm 0.00 in0.0 mm
12:15 AM 53.1°F11.7°C 50.5°F10.3°C 91% 1.2 mph S1.9 kmh S 2.3 mph3.7 kmh 30.21 in1023.0 mb - 0.00 in0.0 mm 0.00 in0.0 mm
12:10 AM 53.0°F11.7°C 50.4°F10.2°C 91% 1.2 mph S1.9 kmh S 2.3 mph3.7 kmh 30.21 in1023.0 mb - 0.00 in0.0 mm 0.00 in0.0 mm
12:00 AM 53.2°F11.8°C 50.6°F10.3°C 91% Calm Calm -- 30.21 in1023.0 mb - 0.00 in0.0 mm 0.00 in0.0 mm